sensor_id;sensor_type;location;lat;lon;timestamp;temperature;humidity
26378;DHT22;14078;50.974;6.786;2023-03-15T00:00:31;3.40;99.90
26378;DHT22;14078;50.974;6.786;2023-03-15T00:02:58;3.50;99.90
26378;DHT22;14078;50.974;6.786;2023-03-15T00:05:28;3.50;99.90
26378;DHT22;14078;50.974;6.786;2023-03-15T00:07:57;3.50;99.90
26378;DHT22;14078;50.974;6.786;2023-03-15T00:10:24;3.60;99.90
26378;DHT22;14078;50.974;6.786;2023-03-15T00:12:50;3.60;99.90
26378;DHT22;14078;50.974;6.786;2023-03-15T00:15:17;3.70;99.90
26378;DHT22;14078;50.974;6.786;2023-03-15T00:17:43;3.70;99.90
26378;DHT22;14078;50.974;6.786;2023-03-15T00:20:10;3.70;99.90
26378;DHT22;14078;50.974;6.786;2023-03-15T00:22:39;3.80;99.90
26378;DHT22;14078;50.974;6.786;2023-03-15T00:25:07;3.80;99.90
26378;DHT22;14078;50.974;6.786;2023-03-15T00:27:34;3.80;99.90
26378;DHT22;14078;50.974;6.786;2023-03-15T00:30:00;3.90;99.90
26378;DHT22;14078;50.974;6.786;2023-03-15T00:32:27;3.90;99.90
26378;DHT22;14078;50.974;6.786;2023-03-15T00:34:53;4.00;99.90
26378;DHT22;14078;50.974;6.786;2023-03-15T00:37:20;3.90;99.90
26378;DHT22;14078;50.974;6.786;2023-03-15T00:39:50;4.00;99.90
26378;DHT22;14078;50.974;6.786;2023-03-15T00:42:21;4.00;99.90
26378;DHT22;14078;50.974;6.786;2023-03-15T00:44:52;3.90;99.90
26378;DHT22;14078;50.974;6.786;2023-03-15T00:47:18;3.90;99.90
26378;DHT22;14078;50.974;6.786;2023-03-15T00:49:45;3.90;99.90
26378;DHT22;14078;50.974;6.786;2023-03-15T00:52:11;3.90;99.90
26378;DHT22;14078;50.974;6.786;2023-03-15T00:54:38;3.90;99.90
26378;DHT22;14078;50.974;6.786;2023-03-15T00:57:06;3.80;99.90
26378;DHT22;14078;50.974;6.786;2023-03-15T00:59:33;3.70;99.90
26378;DHT22;14078;50.974;6.786;2023-03-15T01:02:00;3.50;99.90
26378;DHT22;14078;50.974;6.786;2023-03-15T01:04:27;3.40;99.90
26378;DHT22;14078;50.974;6.786;2023-03-15T01:06:53;3.30;99.90
26378;DHT22;14078;50.974;6.786;2023-03-15T01:09:20;3.30;99.90
26378;DHT22;14078;50.974;6.786;2023-03-15T01:11:46;3.20;99.90
26378;DHT22;14078;50.974;6.786;2023-03-15T01:14:13;3.30;99.90
26378;DHT22;14078;50.974;6.786;2023-03-15T01:16:41;3.30;99.90
26378;DHT22;14078;50.974;6.786;2023-03-15T01:19:07;3.40;99.90
26378;DHT22;14078;50.974;6.786;2023-03-15T01:21:34;3.40;99.90
26378;DHT22;14078;50.974;6.786;2023-03-15T01:24:00;3.40;99.90
26378;DHT22;14078;50.974;6.786;2023-03-15T01:26:27;3.50;99.90
26378;DHT22;14078;50.974;6.786;2023-03-15T01:28:53;3.50;99.90
26378;DHT22;14078;50.974;6.786;2023-03-15T01:31:21;3.50;99.90
26378;DHT22;14078;50.974;6.786;2023-03-15T01:33:49;3.50;99.90
26378;DHT22;14078;50.974;6.786;2023-03-15T01:36:15;3.40;99.90
26378;DHT22;14078;50.974;6.786;2023-03-15T01:38:42;3.30;99.90
26378;DHT22;14078;50.974;6.786;2023-03-15T01:41:09;3.20;99.90
26378;DHT22;14078;50.974;6.786;2023-03-15T01:43:36;3.10;99.90
26378;DHT22;14078;50.974;6.786;2023-03-15T01:46:05;3.00;99.90
26378;DHT22;14078;50.974;6.786;2023-03-15T01:48:33;3.00;99.90
26378;DHT22;14078;50.974;6.786;2023-03-15T01:51:03;2.90;99.90
26378;DHT22;14078;50.974;6.786;2023-03-15T01:53:32;2.80;99.90
26378;DHT22;14078;50.974;6.786;2023-03-15T01:55:59;2.80;99.90
26378;DHT22;14078;50.974;6.786;2023-03-15T01:58:26;2.70;99.90
26378;DHT22;14078;50.974;6.786;2023-03-15T02:00:53;2.70;99.90
26378;DHT22;14078;50.974;6.786;2023-03-15T02:03:20;2.60;99.90
26378;DHT22;14078;50.974;6.786;2023-03-15T02:05:50;2.40;99.90
26378;DHT22;14078;50.974;6.786;2023-03-15T02:08:20;2.30;99.90
26378;DHT22;14078;50.974;6.786;2023-03-15T02:10:48;2.20;99.90
26378;DHT22;14078;50.974;6.786;2023-03-15T02:13:17;2.00;99.90
26378;DHT22;14078;50.974;6.786;2023-03-15T02:15:43;1.90;99.90
26378;DHT22;14078;50.974;6.786;2023-03-15T02:18:11;1.80;99.90
26378;DHT22;14078;50.974;6.786;2023-03-15T02:20:39;1.60;99.90
26378;DHT22;14078;50.974;6.786;2023-03-15T02:23:08;1.60;99.90
26378;DHT22;14078;50.974;6.786;2023-03-15T02:25:40;1.60;99.90
26378;DHT22;14078;50.974;6.786;2023-03-15T02:28:10;1.40;99.90
26378;DHT22;14078;50.974;6.786;2023-03-15T02:30:38;1.40;99.90
26378;DHT22;14078;50.974;6.786;2023-03-15T02:33:05;1.40;99.90
26378;DHT22;14078;50.974;6.786;2023-03-15T02:35:33;1.40;99.90
26378;DHT22;14078;50.974;6.786;2023-03-15T02:37:59;1.40;99.90
26378;DHT22;14078;50.974;6.786;2023-03-15T02:40:27;1.40;99.90
26378;DHT22;14078;50.974;6.786;2023-03-15T02:42:55;1.40;99.90
26378;DHT22;14078;50.974;6.786;2023-03-15T02:45:24;1.30;99.90
26378;DHT22;14078;50.974;6.786;2023-03-15T02:47:50;1.30;99.90
26378;DHT22;14078;50.974;6.786;2023-03-15T02:50:17;1.30;99.90
26378;DHT22;14078;50.974;6.786;2023-03-15T02:52:43;1.40;99.90
26378;DHT22;14078;50.974;6.786;2023-03-15T02:55:10;1.50;99.90
26378;DHT22;14078;50.974;6.786;2023-03-15T02:57:36;1.40;99.90
26378;DHT22;14078;50.974;6.786;2023-03-15T03:00:03;1.40;99.90
26378;DHT22;14078;50.974;6.786;2023-03-15T03:02:39;1.50;99.90
26378;DHT22;14078;50.974;6.786;2023-03-15T03:05:06;1.50;99.90
26378;DHT22;14078;50.974;6.786;2023-03-15T03:07:32;1.50;99.90
26378;DHT22;14078;50.974;6.786;2023-03-15T03:09:59;1.60;99.90
26378;DHT22;14078;50.974;6.786;2023-03-15T03:12:25;1.70;99.90
26378;DHT22;14078;50.974;6.786;2023-03-15T03:14:52;1.70;99.90
26378;DHT22;14078;50.974;6.786;2023-03-15T03:17:18;1.70;99.90
26378;DHT22;14078;50.974;6.786;2023-03-15T03:19:46;1.60;99.90
26378;DHT22;14078;50.974;6.786;2023-03-15T03:22:13;1.60;99.90
26378;DHT22;14078;50.974;6.786;2023-03-15T03:24:39;1.70;99.90
26378;DHT22;14078;50.974;6.786;2023-03-15T03:27:10;1.70;99.90
26378;DHT22;14078;50.974;6.786;2023-03-15T03:29:39;1.70;99.90
26378;DHT22;14078;50.974;6.786;2023-03-15T03:32:05;1.80;99.90
26378;DHT22;14078;50.974;6.786;2023-03-15T03:34:32;1.80;99.90
26378;DHT22;14078;50.974;6.786;2023-03-15T03:37:00;1.80;99.90
26378;DHT22;14078;50.974;6.786;2023-03-15T03:39:27;1.80;99.90
26378;DHT22;14078;50.974;6.786;2023-03-15T03:41:53;1.80;99.90
26378;DHT22;14078;50.974;6.786;2023-03-15T03:44:20;1.80;99.90
26378;DHT22;14078;50.974;6.786;2023-03-15T03:46:46;1.80;99.90
26378;DHT22;14078;50.974;6.786;2023-03-15T03:49:13;1.80;99.90
26378;DHT22;14078;50.974;6.786;2023-03-15T03:51:39;1.80;99.90
26378;DHT22;14078;50.974;6.786;2023-03-15T03:54:07;1.80;99.90
26378;DHT22;14078;50.974;6.786;2023-03-15T03:56:34;1.80;99.90
26378;DHT22;14078;50.974;6.786;2023-03-15T03:59:00;1.80;99.90
26378;DHT22;14078;50.974;6.786;2023-03-15T04:01:27;1.80;99.90
26378;DHT22;14078;50.974;6.786;2023-03-15T04:03:53;1.90;99.90
26378;DHT22;14078;50.974;6.786;2023-03-15T04:06:20;1.90;99.90
26378;DHT22;14078;50.974;6.786;2023-03-15T04:08:47;1.90;99.90
26378;DHT22;14078;50.974;6.786;2023-03-15T04:11:15;1.90;99.90
26378;DHT22;14078;50.974;6.786;2023-03-15T04:13:42;1.90;99.90
26378;DHT22;14078;50.974;6.786;2023-03-15T04:16:09;2.00;99.90
26378;DHT22;14078;50.974;6.786;2023-03-15T04:18:35;2.00;99.90
26378;DHT22;14078;50.974;6.786;2023-03-15T04:21:02;2.00;99.90
26378;DHT22;14078;50.974;6.786;2023-03-15T04:23:28;2.00;99.90
26378;DHT22;14078;50.974;6.786;2023-03-15T04:25:55;2.10;99.90
26378;DHT22;14078;50.974;6.786;2023-03-15T04:28:23;2.00;99.90
26378;DHT22;14078;50.974;6.786;2023-03-15T04:30:50;2.00;99.90
26378;DHT22;14078;50.974;6.786;2023-03-15T04:33:16;2.00;99.90
26378;DHT22;14078;50.974;6.786;2023-03-15T04:35:43;1.80;99.90
26378;DHT22;14078;50.974;6.786;2023-03-15T04:38:09;1.70;99.90
26378;DHT22;14078;50.974;6.786;2023-03-15T04:40:36;1.60;99.90
26378;DHT22;14078;50.974;6.786;2023-03-15T04:43:03;1.50;99.90
26378;DHT22;14078;50.974;6.786;2023-03-15T04:45:31;1.40;99.90
26378;DHT22;14078;50.974;6.786;2023-03-15T04:47:58;1.30;99.90
26378;DHT22;14078;50.974;6.786;2023-03-15T04:50:25;1.40;99.90
26378;DHT22;14078;50.974;6.786;2023-03-15T04:52:52;1.30;99.90
26378;DHT22;14078;50.974;6.786;2023-03-15T04:55:22;1.30;99.90
26378;DHT22;14078;50.974;6.786;2023-03-15T04:57:48;1.40;99.90
26378;DHT22;14078;50.974;6.786;2023-03-15T05:00:15;1.40;99.90
26378;DHT22;14078;50.974;6.786;2023-03-15T05:02:43;1.40;99.90
26378;DHT22;14078;50.974;6.786;2023-03-15T05:05:16;1.40;99.90
26378;DHT22;14078;50.974;6.786;2023-03-15T05:07:42;1.50;99.90
26378;DHT22;14078;50.974;6.786;2023-03-15T05:10:09;1.50;99.90
26378;DHT22;14078;50.974;6.786;2023-03-15T05:12:36;1.50;99.90
26378;DHT22;14078;50.974;6.786;2023-03-15T05:15:02;1.50;99.90
26378;DHT22;14078;50.974;6.786;2023-03-15T05:17:29;1.60;99.90
26378;DHT22;14078;50.974;6.786;2023-03-15T05:19:59;1.60;99.90
26378;DHT22;14078;50.974;6.786;2023-03-15T05:22:26;1.60;99.90
26378;DHT22;14078;50.974;6.786;2023-03-15T05:24:52;1.60;99.90
26378;DHT22;14078;50.974;6.786;2023-03-15T05:27:19;1.60;99.90
26378;DHT22;14078;50.974;6.786;2023-03-15T05:29:46;1.50;99.90
26378;DHT22;14078;50.974;6.786;2023-03-15T05:32:12;1.60;99.90
26378;DHT22;14078;50.974;6.786;2023-03-15T05:34:39;1.50;99.90
26378;DHT22;14078;50.974;6.786;2023-03-15T05:37:08;1.60;99.90
26378;DHT22;14078;50.974;6.786;2023-03-15T05:39:36;1.50;99.90
26378;DHT22;14078;50.974;6.786;2023-03-15T05:42:03;1.50;99.90
26378;DHT22;14078;50.974;6.786;2023-03-15T05:44:29;1.50;99.90
26378;DHT22;14078;50.974;6.786;2023-03-15T05:46:56;1.50;99.90
26378;DHT22;14078;50.974;6.786;2023-03-15T05:49:22;1.50;99.90
26378;DHT22;14078;50.974;6.786;2023-03-15T05:51:49;1.50;99.90
26378;DHT22;14078;50.974;6.786;2023-03-15T05:54:17;1.50;99.90
26378;DHT22;14078;50.974;6.786;2023-03-15T05:56:43;1.50;99.90
26378;DHT22;14078;50.974;6.786;2023-03-15T05:59:10;1.50;99.90
26378;DHT22;14078;50.974;6.786;2023-03-15T06:01:36;1.60;99.90
26378;DHT22;14078;50.974;6.786;2023-03-15T06:04:03;1.60;99.90
26378;DHT22;14078;50.974;6.786;2023-03-15T06:06:29;1.70;99.90
26378;DHT22;14078;50.974;6.786;2023-03-15T06:08:56;1.70;99.90
26378;DHT22;14078;50.974;6.786;2023-03-15T06:11:24;1.70;99.90
26378;DHT22;14078;50.974;6.786;2023-03-15T06:13:50;1.70;99.90
26378;DHT22;14078;50.974;6.786;2023-03-15T06:16:17;1.80;99.90
26378;DHT22;14078;50.974;6.786;2023-03-15T06:18:43;1.80;99.90
26378;DHT22;14078;50.974;6.786;2023-03-15T06:21:10;1.80;99.90
26378;DHT22;14078;50.974;6.786;2023-03-15T06:23:36;1.80;99.90
26378;DHT22;14078;50.974;6.786;2023-03-15T06:26:03;1.90;99.90
26378;DHT22;14078;50.974;6.786;2023-03-15T06:28:31;1.90;99.90
26378;DHT22;14078;50.974;6.786;2023-03-15T06:30:57;1.80;99.90
26378;DHT22;14078;50.974;6.786;2023-03-15T06:33:24;1.90;99.90
26378;DHT22;14078;50.974;6.786;2023-03-15T06:35:50;1.90;99.90
26378;DHT22;14078;50.974;6.786;2023-03-15T06:38:17;1.90;99.90
26378;DHT22;14078;50.974;6.786;2023-03-15T06:40:43;1.90;99.90
26378;DHT22;14078;50.974;6.786;2023-03-15T06:43:10;2.00;99.90
26378;DHT22;14078;50.974;6.786;2023-03-15T06:45:44;2.10;99.90
26378;DHT22;14078;50.974;6.786;2023-03-15T06:48:11;2.10;99.90
26378;DHT22;14078;50.974;6.786;2023-03-15T06:50:37;2.10;99.90
26378;DHT22;14078;50.974;6.786;2023-03-15T06:53:04;2.20;99.90
26378;DHT22;14078;50.974;6.786;2023-03-15T06:55:30;2.20;99.90
26378;DHT22;14078;50.974;6.786;2023-03-15T06:57:57;2.30;99.90
26378;DHT22;14078;50.974;6.786;2023-03-15T07:00:23;2.30;99.90
26378;DHT22;14078;50.974;6.786;2023-03-15T07:02:51;2.40;99.90
26378;DHT22;14078;50.974;6.786;2023-03-15T07:05:18;2.40;99.90
26378;DHT22;14078;50.974;6.786;2023-03-15T07:07:45;2.50;99.90
26378;DHT22;14078;50.974;6.786;2023-03-15T07:10:11;2.60;99.90
26378;DHT22;14078;50.974;6.786;2023-03-15T07:12:38;2.60;99.90
26378;DHT22;14078;50.974;6.786;2023-03-15T07:15:05;2.60;99.90
26378;DHT22;14078;50.974;6.786;2023-03-15T07:17:31;2.60;99.90
26378;DHT22;14078;50.974;6.786;2023-03-15T07:20:00;2.70;99.90
26378;DHT22;14078;50.974;6.786;2023-03-15T07:22:26;2.70;99.90
26378;DHT22;14078;50.974;6.786;2023-03-15T07:24:53;2.70;99.90
26378;DHT22;14078;50.974;6.786;2023-03-15T07:27:19;2.70;99.90
26378;DHT22;14078;50.974;6.786;2023-03-15T07:29:46;2.70;99.90
26378;DHT22;14078;50.974;6.786;2023-03-15T07:32:12;2.60;99.90
26378;DHT22;14078;50.974;6.786;2023-03-15T07:34:39;2.60;99.90
26378;DHT22;14078;50.974;6.786;2023-03-15T07:37:07;2.60;99.90
26378;DHT22;14078;50.974;6.786;2023-03-15T07:39:33;2.70;99.90
26378;DHT22;14078;50.974;6.786;2023-03-15T07:42:00;2.70;99.90
26378;DHT22;14078;50.974;6.786;2023-03-15T07:44:26;2.70;99.90
26378;DHT22;14078;50.974;6.786;2023-03-15T07:46:54;2.70;99.90
26378;DHT22;14078;50.974;6.786;2023-03-15T07:49:20;2.80;99.90
26378;DHT22;14078;50.974;6.786;2023-03-15T07:51:47;2.70;99.90
26378;DHT22;14078;50.974;6.786;2023-03-15T07:54:15;2.80;99.90
26378;DHT22;14078;50.974;6.786;2023-03-15T07:56:41;2.80;99.90
26378;DHT22;14078;50.974;6.786;2023-03-15T07:59:08;2.70;99.90
26378;DHT22;14078;50.974;6.786;2023-03-15T08:01:35;2.80;99.90
26378;DHT22;14078;50.974;6.786;2023-03-15T08:04:02;2.80;99.90
26378;DHT22;14078;50.974;6.786;2023-03-15T08:06:29;2.90;99.90
26378;DHT22;14078;50.974;6.786;2023-03-15T08:08:55;3.00;99.90
26378;DHT22;14078;50.974;6.786;2023-03-15T08:11:23;3.10;99.90
26378;DHT22;14078;50.974;6.786;2023-03-15T08:13:50;3.20;99.90
26378;DHT22;14078;50.974;6.786;2023-03-15T08:16:16;3.20;99.90
26378;DHT22;14078;50.974;6.786;2023-03-15T08:18:43;3.30;99.90
26378;DHT22;14078;50.974;6.786;2023-03-15T08:21:09;3.30;99.90
26378;DHT22;14078;50.974;6.786;2023-03-15T08:23:36;3.30;99.90
26378;DHT22;14078;50.974;6.786;2023-03-15T08:26:02;3.40;99.90
26378;DHT22;14078;50.974;6.786;2023-03-15T08:28:30;3.60;99.90
26378;DHT22;14078;50.974;6.786;2023-03-15T08:30:57;3.60;99.90
26378;DHT22;14078;50.974;6.786;2023-03-15T08:33:23;3.70;99.90
26378;DHT22;14078;50.974;6.786;2023-03-15T08:35:54;3.80;99.90
26378;DHT22;14078;50.974;6.786;2023-03-15T08:38:21;3.90;99.90
26378;DHT22;14078;50.974;6.786;2023-03-15T08:40:47;3.90;99.90
26378;DHT22;14078;50.974;6.786;2023-03-15T08:43:14;4.00;99.90
26378;DHT22;14078;50.974;6.786;2023-03-15T08:45:42;4.10;99.90
26378;DHT22;14078;50.974;6.786;2023-03-15T08:48:08;4.20;99.90
26378;DHT22;14078;50.974;6.786;2023-03-15T08:50:38;4.20;99.90
26378;DHT22;14078;50.974;6.786;2023-03-15T08:53:05;4.30;99.90
26378;DHT22;14078;50.974;6.786;2023-03-15T08:55:32;4.20;99.90
26378;DHT22;14078;50.974;6.786;2023-03-15T08:57:58;4.20;99.90
26378;DHT22;14078;50.974;6.786;2023-03-15T09:00:26;4.20;99.90
26378;DHT22;14078;50.974;6.786;2023-03-15T09:02:54;4.00;99.90
26378;DHT22;14078;50.974;6.786;2023-03-15T09:05:23;3.90;99.90
26378;DHT22;14078;50.974;6.786;2023-03-15T09:07:50;4.00;99.90
26378;DHT22;14078;50.974;6.786;2023-03-15T09:10:17;4.10;99.90
26378;DHT22;14078;50.974;6.786;2023-03-15T09:12:45;4.10;99.90
26378;DHT22;14078;50.974;6.786;2023-03-15T09:15:11;4.20;99.90
26378;DHT22;14078;50.974;6.786;2023-03-15T09:17:38;4.20;99.90
26378;DHT22;14078;50.974;6.786;2023-03-15T09:20:07;4.30;99.90
26378;DHT22;14078;50.974;6.786;2023-03-15T09:22:38;4.40;99.90
26378;DHT22;14078;50.974;6.786;2023-03-15T09:25:05;4.40;99.90
26378;DHT22;14078;50.974;6.786;2023-03-15T09:27:32;4.40;99.90
26378;DHT22;14078;50.974;6.786;2023-03-15T09:29:59;4.40;99.90
26378;DHT22;14078;50.974;6.786;2023-03-15T09:32:25;4.40;99.90
26378;DHT22;14078;50.974;6.786;2023-03-15T09:34:52;4.40;99.90
26378;DHT22;14078;50.974;6.786;2023-03-15T09:37:20;4.30;99.90
26378;DHT22;14078;50.974;6.786;2023-03-15T09:39:46;4.30;99.90
26378;DHT22;14078;50.974;6.786;2023-03-15T09:42:15;4.30;99.90
26378;DHT22;14078;50.974;6.786;2023-03-15T09:44:43;4.20;99.90
26378;DHT22;14078;50.974;6.786;2023-03-15T09:47:19;4.40;99.90
26378;DHT22;14078;50.974;6.786;2023-03-15T09:49:48;4.40;99.90
26378;DHT22;14078;50.974;6.786;2023-03-15T09:52:23;4.30;99.90
26378;DHT22;14078;50.974;6.786;2023-03-15T09:54:52;4.40;99.90
26378;DHT22;14078;50.974;6.786;2023-03-15T09:57:22;4.50;99.90
26378;DHT22;14078;50.974;6.786;2023-03-15T09:59:50;4.70;99.90
26378;DHT22;14078;50.974;6.786;2023-03-15T10:02:18;4.60;99.90
26378;DHT22;14078;50.974;6.786;2023-03-15T10:04:47;4.50;99.90
26378;DHT22;14078;50.974;6.786;2023-03-15T10:07:15;4.70;99.90
26378;DHT22;14078;50.974;6.786;2023-03-15T10:09:43;4.80;99.90
26378;DHT22;14078;50.974;6.786;2023-03-15T10:12:11;5.20;99.90
26378;DHT22;14078;50.974;6.786;2023-03-15T10:14:43;5.50;99.90
26378;DHT22;14078;50.974;6.786;2023-03-15T10:17:13;5.70;99.90
26378;DHT22;14078;50.974;6.786;2023-03-15T10:19:43;5.70;99.90
26378;DHT22;14078;50.974;6.786;2023-03-15T10:22:14;5.80;99.90
26378;DHT22;14078;50.974;6.786;2023-03-15T10:24:48;5.90;99.90
26378;DHT22;14078;50.974;6.786;2023-03-15T10:27:18;5.90;99.90
26378;DHT22;14078;50.974;6.786;2023-03-15T10:29:45;5.70;99.90
26378;DHT22;14078;50.974;6.786;2023-03-15T10:32:14;5.60;99.90
26378;DHT22;14078;50.974;6.786;2023-03-15T10:34:42;5.50;99.90
26378;DHT22;14078;50.974;6.786;2023-03-15T10:37:08;5.60;99.90
26378;DHT22;14078;50.974;6.786;2023-03-15T10:39:35;5.50;99.90
26378;DHT22;14078;50.974;6.786;2023-03-15T10:42:03;5.50;99.90
26378;DHT22;14078;50.974;6.786;2023-03-15T10:44:30;5.30;99.90
26378;DHT22;14078;50.974;6.786;2023-03-15T10:47:03;5.10;99.90
26378;DHT22;14078;50.974;6.786;2023-03-15T10:49:31;5.00;99.90
26378;DHT22;14078;50.974;6.786;2023-03-15T10:51:58;5.10;99.90
26378;DHT22;14078;50.974;6.786;2023-03-15T10:54:25;5.30;99.90
26378;DHT22;14078;50.974;6.786;2023-03-15T10:56:55;5.50;99.90
26378;DHT22;14078;50.974;6.786;2023-03-15T10:59:24;5.80;99.90
26378;DHT22;14078;50.974;6.786;2023-03-15T11:01:52;6.00;99.90
26378;DHT22;14078;50.974;6.786;2023-03-15T11:04:19;6.10;99.90
26378;DHT22;14078;50.974;6.786;2023-03-15T11:06:47;6.30;99.90
26378;DHT22;14078;50.974;6.786;2023-03-15T11:09:14;6.60;99.90
26378;DHT22;14078;50.974;6.786;2023-03-15T11:11:51;6.70;99.90
26378;DHT22;14078;50.974;6.786;2023-03-15T11:14:18;6.70;99.90
26378;DHT22;14078;50.974;6.786;2023-03-15T11:16:47;6.60;99.90
26378;DHT22;14078;50.974;6.786;2023-03-15T11:19:15;6.40;99.90
26378;DHT22;14078;50.974;6.786;2023-03-15T11:21:42;6.60;99.90
26378;DHT22;14078;50.974;6.786;2023-03-15T11:24:19;6.50;99.90
26378;DHT22;14078;50.974;6.786;2023-03-15T11:26:46;6.70;99.90
26378;DHT22;14078;50.974;6.786;2023-03-15T11:29:20;7.00;90.40
26378;DHT22;14078;50.974;6.786;2023-03-15T11:31:48;7.10;72.30
26378;DHT22;14078;50.974;6.786;2023-03-15T11:34:16;6.90;73.80
26378;DHT22;14078;50.974;6.786;2023-03-15T11:36:46;6.80;99.90
26378;DHT22;14078;50.974;6.786;2023-03-15T11:39:18;6.80;99.90
26378;DHT22;14078;50.974;6.786;2023-03-15T11:41:50;6.90;74.60
26378;DHT22;14078;50.974;6.786;2023-03-15T11:44:21;6.90;76.00
26378;DHT22;14078;50.974;6.786;2023-03-15T11:46:53;6.80;99.90
26378;DHT22;14078;50.974;6.786;2023-03-15T11:49:24;6.90;97.50
26378;DHT22;14078;50.974;6.786;2023-03-15T11:51:54;6.80;63.10
26378;DHT22;14078;50.974;6.786;2023-03-15T11:54:21;6.80;99.90
26378;DHT22;14078;50.974;6.786;2023-03-15T11:56:51;6.90;1.00
26378;DHT22;14078;50.974;6.786;2023-03-15T11:59:18;6.90;1.00
26378;DHT22;14078;50.974;6.786;2023-03-15T12:01:46;6.80;1.00
26378;DHT22;14078;50.974;6.786;2023-03-15T12:07:00;6.90;99.90
26378;DHT22;14078;50.974;6.786;2023-03-15T12:09:37;6.80;99.90
26378;DHT22;14078;50.974;6.786;2023-03-15T12:12:05;7.00;1.00
26378;DHT22;14078;50.974;6.786;2023-03-15T12:14:32;7.10;99.90
26378;DHT22;14078;50.974;6.786;2023-03-15T12:19:44;7.40;99.90
26378;DHT22;14078;50.974;6.786;2023-03-15T12:22:14;7.50;99.90
26378;DHT22;14078;50.974;6.786;2023-03-15T12:24:41;7.50;99.90
26378;DHT22;14078;50.974;6.786;2023-03-15T12:27:13;7.60;99.90
26378;DHT22;14078;50.974;6.786;2023-03-15T12:29:40;7.60;99.90
26378;DHT22;14078;50.974;6.786;2023-03-15T12:32:10;7.70;1.00
26378;DHT22;14078;50.974;6.786;2023-03-15T12:34:44;7.80;99.90
26378;DHT22;14078;50.974;6.786;2023-03-15T12:37:14;7.80;1.00
26378;DHT22;14078;50.974;6.786;2023-03-15T12:39:43;7.80;99.90
26378;DHT22;14078;50.974;6.786;2023-03-15T12:42:14;7.90;99.90
26378;DHT22;14078;50.974;6.786;2023-03-15T12:47:46;7.80;99.90
26378;DHT22;14078;50.974;6.786;2023-03-15T12:52:58;8.10;99.90
26378;DHT22;14078;50.974;6.786;2023-03-15T12:55:26;8.30;1.00
26378;DHT22;14078;50.974;6.786;2023-03-15T12:57:54;8.40;99.90
26378;DHT22;14078;50.974;6.786;2023-03-15T13:00:22;8.30;99.90
26378;DHT22;14078;50.974;6.786;2023-03-15T13:02:52;8.40;99.90
26378;DHT22;14078;50.974;6.786;2023-03-15T13:05:23;8.60;1.00
26378;DHT22;14078;50.974;6.786;2023-03-15T13:07:56;8.50;1.00
26378;DHT22;14078;50.974;6.786;2023-03-15T13:15:51;8.70;99.90
26378;DHT22;14078;50.974;6.786;2023-03-15T13:18:22;8.60;99.90
26378;DHT22;14078;50.974;6.786;2023-03-15T13:20:55;8.50;17.20
26378;DHT22;14078;50.974;6.786;2023-03-15T13:23:25;8.60;78.30
26378;DHT22;14078;50.974;6.786;2023-03-15T13:26:02;8.60;99.90
26378;DHT22;14078;50.974;6.786;2023-03-15T13:28:34;8.50;99.90
26378;DHT22;14078;50.974;6.786;2023-03-15T13:31:18;8.40;99.90
26378;DHT22;14078;50.974;6.786;2023-03-15T13:33:45;8.30;99.90
26378;DHT22;14078;50.974;6.786;2023-03-15T13:36:13;8.30;1.00
26378;DHT22;14078;50.974;6.786;2023-03-15T13:38:41;8.40;99.90
26378;DHT22;14078;50.974;6.786;2023-03-15T13:41:14;8.80;99.90
26378;DHT22;14078;50.974;6.786;2023-03-15T13:43:41;8.80;99.90
26378;DHT22;14078;50.974;6.786;2023-03-15T13:46:08;8.80;99.90
26378;DHT22;14078;50.974;6.786;2023-03-15T13:48:39;8.80;99.90
26378;DHT22;14078;50.974;6.786;2023-03-15T13:51:06;8.70;1.00
26378;DHT22;14078;50.974;6.786;2023-03-15T13:53:34;8.70;99.90
26378;DHT22;14078;50.974;6.786;2023-03-15T13:56:01;8.80;99.90
26378;DHT22;14078;50.974;6.786;2023-03-15T13:58:31;8.70;99.90
26378;DHT22;14078;50.974;6.786;2023-03-15T14:00:59;8.70;99.90
26378;DHT22;14078;50.974;6.786;2023-03-15T14:03:27;8.90;76.50
26378;DHT22;14078;50.974;6.786;2023-03-15T14:05:55;8.90;40.00
26378;DHT22;14078;50.974;6.786;2023-03-15T14:08:23;9.00;34.50
26378;DHT22;14078;50.974;6.786;2023-03-15T14:10:59;9.00;36.50
26378;DHT22;14078;50.974;6.786;2023-03-15T14:13:26;9.10;43.60
26378;DHT22;14078;50.974;6.786;2023-03-15T14:15:57;9.20;49.20
26378;DHT22;14078;50.974;6.786;2023-03-15T14:18:25;9.30;34.60
26378;DHT22;14078;50.974;6.786;2023-03-15T14:20:52;9.30;10.70
26378;DHT22;14078;50.974;6.786;2023-03-15T14:23:22;9.10;19.40
26378;DHT22;14078;50.974;6.786;2023-03-15T14:25:50;8.90;10.40
26378;DHT22;14078;50.974;6.786;2023-03-15T14:28:17;9.00;79.30
26378;DHT22;14078;50.974;6.786;2023-03-15T14:30:49;9.00;30.70
26378;DHT22;14078;50.974;6.786;2023-03-15T14:33:24;8.90;28.50
26378;DHT22;14078;50.974;6.786;2023-03-15T14:35:52;8.90;12.60
26378;DHT22;14078;50.974;6.786;2023-03-15T14:38:20;9.10;1.00
26378;DHT22;14078;50.974;6.786;2023-03-15T14:40:48;9.00;99.90
26378;DHT22;14078;50.974;6.786;2023-03-15T14:43:15;9.10;1.00
26378;DHT22;14078;50.974;6.786;2023-03-15T14:45:43;9.00;7.00
26378;DHT22;14078;50.974;6.786;2023-03-15T14:48:10;8.90;90.30
26378;DHT22;14078;50.974;6.786;2023-03-15T14:50:38;8.80;1.00
26378;DHT22;14078;50.974;6.786;2023-03-15T14:53:05;9.00;1.00
26378;DHT22;14078;50.974;6.786;2023-03-15T14:55:33;8.90;1.00
26378;DHT22;14078;50.974;6.786;2023-03-15T14:58:01;9.20;1.00
26378;DHT22;14078;50.974;6.786;2023-03-15T15:00:28;9.10;1.00
26378;DHT22;14078;50.974;6.786;2023-03-15T15:02:55;8.80;99.90
26378;DHT22;14078;50.974;6.786;2023-03-15T15:05:23;8.80;53.90
26378;DHT22;14078;50.974;6.786;2023-03-15T15:07:50;9.00;59.80
26378;DHT22;14078;50.974;6.786;2023-03-15T15:10:19;9.00;36.60
26378;DHT22;14078;50.974;6.786;2023-03-15T15:12:46;9.00;2.80
26378;DHT22;14078;50.974;6.786;2023-03-15T15:15:15;9.00;1.00
26378;DHT22;14078;50.974;6.786;2023-03-15T15:17:42;9.00;99.90
26378;DHT22;14078;50.974;6.786;2023-03-15T15:20:09;9.00;97.10
26378;DHT22;14078;50.974;6.786;2023-03-15T15:22:37;9.20;1.00
26378;DHT22;14078;50.974;6.786;2023-03-15T15:25:05;9.30;1.00
26378;DHT22;14078;50.974;6.786;2023-03-15T15:27:34;9.30;1.00
26378;DHT22;14078;50.974;6.786;2023-03-15T15:30:00;9.20;99.90
26378;DHT22;14078;50.974;6.786;2023-03-15T15:32:29;9.20;1.00
26378;DHT22;14078;50.974;6.786;2023-03-15T15:34:57;9.20;1.70
26378;DHT22;14078;50.974;6.786;2023-03-15T15:37:24;9.10;99.90
26378;DHT22;14078;50.974;6.786;2023-03-15T15:39:51;9.10;99.90
26378;DHT22;14078;50.974;6.786;2023-03-15T15:42:17;8.90;56.80
26378;DHT22;14078;50.974;6.786;2023-03-15T15:44:44;8.60;99.90
26378;DHT22;14078;50.974;6.786;2023-03-15T15:47:11;8.70;99.90
26378;DHT22;14078;50.974;6.786;2023-03-15T15:49:38;8.70;99.90
26378;DHT22;14078;50.974;6.786;2023-03-15T15:52:07;8.60;99.90
26378;DHT22;14078;50.974;6.786;2023-03-15T15:54:35;8.60;99.90
26378;DHT22;14078;50.974;6.786;2023-03-15T15:57:02;8.60;99.90
26378;DHT22;14078;50.974;6.786;2023-03-15T15:59:29;8.50;1.00
26378;DHT22;14078;50.974;6.786;2023-03-15T16:01:56;8.50;99.90
26378;DHT22;14078;50.974;6.786;2023-03-15T16:04:22;8.40;1.00
26378;DHT22;14078;50.974;6.786;2023-03-15T16:06:50;8.30;99.90